sensor_id;sensor_type;location;lat;lon;timestamp;temperature;humidity
56542;DHT22;42438;53.174;6.730;2024-03-07T00:01:03;4.90;99.90
56542;DHT22;42438;53.174;6.730;2024-03-07T00:03:34;5.40;99.90
56542;DHT22;42438;53.174;6.730;2024-03-07T00:06:05;4.80;99.90
56542;DHT22;42438;53.174;6.730;2024-03-07T00:08:35;4.50;99.90
56542;DHT22;42438;53.174;6.730;2024-03-07T00:11:06;4.40;99.90
56542;DHT22;42438;53.174;6.730;2024-03-07T00:13:37;4.60;99.90
56542;DHT22;42438;53.174;6.730;2024-03-07T00:16:08;4.40;99.90
56542;DHT22;42438;53.174;6.730;2024-03-07T00:18:40;5.70;99.90
56542;DHT22;42438;53.174;6.730;2024-03-07T00:21:11;4.50;99.90
56542;DHT22;42438;53.174;6.730;2024-03-07T00:23:42;4.40;99.90
56542;DHT22;42438;53.174;6.730;2024-03-07T00:26:14;4.80;99.90
56542;DHT22;42438;53.174;6.730;2024-03-07T00:28:44;4.70;1.00
56542;DHT22;42438;53.174;6.730;2024-03-07T00:31:15;5.80;1.00
56542;DHT22;42438;53.174;6.730;2024-03-07T00:33:46;4.50;1.00
56542;DHT22;42438;53.174;6.730;2024-03-07T00:36:17;5.00;1.00
56542;DHT22;42438;53.174;6.730;2024-03-07T00:38:48;5.50;1.00
56542;DHT22;42438;53.174;6.730;2024-03-07T00:41:19;5.30;1.00
56542;DHT22;42438;53.174;6.730;2024-03-07T00:43:50;4.80;1.00
56542;DHT22;42438;53.174;6.730;2024-03-07T00:46:21;5.00;1.00
56542;DHT22;42438;53.174;6.730;2024-03-07T00:48:52;4.90;1.00
56542;DHT22;42438;53.174;6.730;2024-03-07T00:51:22;4.80;1.00
56542;DHT22;42438;53.174;6.730;2024-03-07T00:53:53;4.60;1.00
56542;DHT22;42438;53.174;6.730;2024-03-07T00:56:24;5.60;1.00
56542;DHT22;42438;53.174;6.730;2024-03-07T00:58:54;4.50;1.00
56542;DHT22;42438;53.174;6.730;2024-03-07T01:01:27;4.80;1.00
56542;DHT22;42438;53.174;6.730;2024-03-07T01:03:57;4.70;1.00
56542;DHT22;42438;53.174;6.730;2024-03-07T01:06:28;4.40;1.00
56542;DHT22;42438;53.174;6.730;2024-03-07T01:08:59;5.10;1.00
56542;DHT22;42438;53.174;6.730;2024-03-07T01:11:29;4.40;1.00
56542;DHT22;42438;53.174;6.730;2024-03-07T01:14:00;4.30;1.00
56542;DHT22;42438;53.174;6.730;2024-03-07T01:16:31;4.50;1.00
56542;DHT22;42438;53.174;6.730;2024-03-07T01:19:02;5.40;99.90
56542;DHT22;42438;53.174;6.730;2024-03-07T01:21:36;4.00;99.90
56542;DHT22;42438;53.174;6.730;2024-03-07T01:24:07;4.20;99.90
56542;DHT22;42438;53.174;6.730;2024-03-07T01:26:37;4.20;99.90
56542;DHT22;42438;53.174;6.730;2024-03-07T01:29:08;4.00;99.90
56542;DHT22;42438;53.174;6.730;2024-03-07T01:31:38;4.50;99.90
56542;DHT22;42438;53.174;6.730;2024-03-07T01:34:09;3.70;99.90
56542;DHT22;42438;53.174;6.730;2024-03-07T01:36:40;3.90;99.90
56542;DHT22;42438;53.174;6.730;2024-03-07T01:39:10;3.60;99.90
56542;DHT22;42438;53.174;6.730;2024-03-07T01:41:41;3.60;99.90
56542;DHT22;42438;53.174;6.730;2024-03-07T01:44:12;3.90;99.90
56542;DHT22;42438;53.174;6.730;2024-03-07T01:46:42;3.70;1.00
56542;DHT22;42438;53.174;6.730;2024-03-07T01:49:13;3.80;1.00
56542;DHT22;42438;53.174;6.730;2024-03-07T01:51:44;3.40;1.00
56542;DHT22;42438;53.174;6.730;2024-03-07T01:54:15;3.50;1.00
56542;DHT22;42438;53.174;6.730;2024-03-07T01:56:45;3.30;1.00
56542;DHT22;42438;53.174;6.730;2024-03-07T01:59:17;3.20;1.00
56542;DHT22;42438;53.174;6.730;2024-03-07T02:01:51;3.10;1.00
56542;DHT22;42438;53.174;6.730;2024-03-07T02:04:22;3.40;1.00
56542;DHT22;42438;53.174;6.730;2024-03-07T02:06:54;3.10;1.00
56542;DHT22;42438;53.174;6.730;2024-03-07T02:09:25;3.30;2.40
56542;DHT22;42438;53.174;6.730;2024-03-07T02:11:56;3.00;80.00
56542;DHT22;42438;53.174;6.730;2024-03-07T02:14:26;3.30;99.90
56542;DHT22;42438;53.174;6.730;2024-03-07T02:16:57;2.90;99.90
56542;DHT22;42438;53.174;6.730;2024-03-07T02:19:28;3.80;99.90
56542;DHT22;42438;53.174;6.730;2024-03-07T02:21:59;2.80;99.90
56542;DHT22;42438;53.174;6.730;2024-03-07T02:24:30;2.90;1.00
56542;DHT22;42438;53.174;6.730;2024-03-07T02:27:02;2.80;1.00
56542;DHT22;42438;53.174;6.730;2024-03-07T02:29:33;2.70;1.00
56542;DHT22;42438;53.174;6.730;2024-03-07T02:32:04;3.00;1.00
56542;DHT22;42438;53.174;6.730;2024-03-07T02:34:35;3.00;60.80
56542;DHT22;42438;53.174;6.730;2024-03-07T02:37:06;2.80;99.90
56542;DHT22;42438;53.174;6.730;2024-03-07T02:39:37;3.30;99.90
56542;DHT22;42438;53.174;6.730;2024-03-07T02:42:07;2.60;1.00
56542;DHT22;42438;53.174;6.730;2024-03-07T02:44:38;2.80;1.00
56542;DHT22;42438;53.174;6.730;2024-03-07T02:47:08;3.20;1.00
56542;DHT22;42438;53.174;6.730;2024-03-07T02:49:39;2.40;1.00
56542;DHT22;42438;53.174;6.730;2024-03-07T02:52:10;2.60;1.00
56542;DHT22;42438;53.174;6.730;2024-03-07T02:54:40;2.60;99.90
56542;DHT22;42438;53.174;6.730;2024-03-07T02:57:11;2.50;99.90
56542;DHT22;42438;53.174;6.730;2024-03-07T02:59:42;2.60;99.90
56542;DHT22;42438;53.174;6.730;2024-03-07T03:02:12;2.60;99.90
56542;DHT22;42438;53.174;6.730;2024-03-07T03:04:43;2.40;1.00
56542;DHT22;42438;53.174;6.730;2024-03-07T03:07:14;2.30;1.00
56542;DHT22;42438;53.174;6.730;2024-03-07T03:09:44;2.20;1.00
56542;DHT22;42438;53.174;6.730;2024-03-07T03:12:15;2.50;1.00
56542;DHT22;42438;53.174;6.730;2024-03-07T03:14:47;2.30;61.50
56542;DHT22;42438;53.174;6.730;2024-03-07T03:17:18;2.40;99.90
56542;DHT22;42438;53.174;6.730;2024-03-07T03:19:49;2.20;1.00
56542;DHT22;42438;53.174;6.730;2024-03-07T03:22:20;2.30;1.00
56542;DHT22;42438;53.174;6.730;2024-03-07T03:24:51;2.10;99.90
56542;DHT22;42438;53.174;6.730;2024-03-07T03:27:25;2.20;99.90
56542;DHT22;42438;53.174;6.730;2024-03-07T03:29:56;2.10;99.90
56542;DHT22;42438;53.174;6.730;2024-03-07T03:32:27;2.20;99.90
56542;DHT22;42438;53.174;6.730;2024-03-07T03:34:57;2.10;99.90
56542;DHT22;42438;53.174;6.730;2024-03-07T03:37:28;2.40;1.00
56542;DHT22;42438;53.174;6.730;2024-03-07T03:39:59;2.00;99.90
56542;DHT22;42438;53.174;6.730;2024-03-07T03:42:29;2.30;1.00
56542;DHT22;42438;53.174;6.730;2024-03-07T03:45:00;2.20;1.00
56542;DHT22;42438;53.174;6.730;2024-03-07T03:47:33;2.30;1.00
56542;DHT22;42438;53.174;6.730;2024-03-07T03:50:04;1.90;1.00
56542;DHT22;42438;53.174;6.730;2024-03-07T03:52:36;2.20;19.40
56542;DHT22;42438;53.174;6.730;2024-03-07T03:55:07;2.20;67.90
56542;DHT22;42438;53.174;6.730;2024-03-07T03:57:43;2.10;99.90
56542;DHT22;42438;53.174;6.730;2024-03-07T04:00:14;2.00;99.90
56542;DHT22;42438;53.174;6.730;2024-03-07T04:02:46;2.00;99.90
56542;DHT22;42438;53.174;6.730;2024-03-07T04:05:20;1.90;99.90
56542;DHT22;42438;53.174;6.730;2024-03-07T04:07:52;2.10;99.90
56542;DHT22;42438;53.174;6.730;2024-03-07T04:10:22;3.10;99.90
56542;DHT22;42438;53.174;6.730;2024-03-07T04:12:53;1.80;99.90
56542;DHT22;42438;53.174;6.730;2024-03-07T04:15:23;2.00;99.90
56542;DHT22;42438;53.174;6.730;2024-03-07T04:17:57;2.10;99.90
56542;DHT22;42438;53.174;6.730;2024-03-07T04:20:27;1.70;99.90
56542;DHT22;42438;53.174;6.730;2024-03-07T04:22:58;2.00;99.90
56542;DHT22;42438;53.174;6.730;2024-03-07T04:25:29;1.70;1.00
56542;DHT22;42438;53.174;6.730;2024-03-07T04:28:00;2.00;1.00
56542;DHT22;42438;53.174;6.730;2024-03-07T04:30:30;1.70;1.00
56542;DHT22;42438;53.174;6.730;2024-03-07T04:33:01;1.70;68.20
56542;DHT22;42438;53.174;6.730;2024-03-07T04:35:32;1.70;76.80
56542;DHT22;42438;53.174;6.730;2024-03-07T04:38:02;2.00;92.50
56542;DHT22;42438;53.174;6.730;2024-03-07T04:40:33;1.80;99.90
56542;DHT22;42438;53.174;6.730;2024-03-07T04:43:05;1.90;99.90
56542;DHT22;42438;53.174;6.730;2024-03-07T04:45:38;2.40;99.90
56542;DHT22;42438;53.174;6.730;2024-03-07T04:48:08;3.20;99.90
56542;DHT22;42438;53.174;6.730;2024-03-07T04:50:39;1.50;99.90
56542;DHT22;42438;53.174;6.730;2024-03-07T04:53:10;1.60;99.90
56542;DHT22;42438;53.174;6.730;2024-03-07T04:55:40;1.80;99.90
56542;DHT22;42438;53.174;6.730;2024-03-07T04:58:11;1.90;99.90
56542;DHT22;42438;53.174;6.730;2024-03-07T05:00:41;1.70;99.90
56542;DHT22;42438;53.174;6.730;2024-03-07T05:03:12;1.50;99.90
56542;DHT22;42438;53.174;6.730;2024-03-07T05:05:43;1.50;99.90
56542;DHT22;42438;53.174;6.730;2024-03-07T05:08:13;1.50;1.00
56542;DHT22;42438;53.174;6.730;2024-03-07T05:10:44;2.10;1.00
56542;DHT22;42438;53.174;6.730;2024-03-07T05:13:15;1.50;1.00
56542;DHT22;42438;53.174;6.730;2024-03-07T05:15:45;1.70;1.00
56542;DHT22;42438;53.174;6.730;2024-03-07T05:18:16;1.60;1.00
56542;DHT22;42438;53.174;6.730;2024-03-07T05:20:47;1.80;1.00
56542;DHT22;42438;53.174;6.730;2024-03-07T05:23:17;1.50;1.00
56542;DHT22;42438;53.174;6.730;2024-03-07T05:25:48;2.20;1.00
56542;DHT22;42438;53.174;6.730;2024-03-07T05:28:20;1.40;1.00
56542;DHT22;42438;53.174;6.730;2024-03-07T05:30:50;1.40;1.00
56542;DHT22;42438;53.174;6.730;2024-03-07T05:33:21;1.50;1.00
56542;DHT22;42438;53.174;6.730;2024-03-07T05:35:52;1.30;1.00
56542;DHT22;42438;53.174;6.730;2024-03-07T05:38:33;1.40;1.00
56542;DHT22;42438;53.174;6.730;2024-03-07T05:41:03;1.50;1.00
56542;DHT22;42438;53.174;6.730;2024-03-07T05:43:34;1.70;1.00
56542;DHT22;42438;53.174;6.730;2024-03-07T05:46:05;1.30;1.00
56542;DHT22;42438;53.174;6.730;2024-03-07T05:48:37;1.30;1.00
56542;DHT22;42438;53.174;6.730;2024-03-07T05:51:08;1.30;1.00
56542;DHT22;42438;53.174;6.730;2024-03-07T05:53:40;1.60;3.20
56542;DHT22;42438;53.174;6.730;2024-03-07T05:56:11;1.20;13.70
56542;DHT22;42438;53.174;6.730;2024-03-07T05:58:41;1.20;17.40
56542;DHT22;42438;53.174;6.730;2024-03-07T06:01:12;1.20;23.50
56542;DHT22;42438;53.174;6.730;2024-03-07T06:03:43;1.50;43.70
56542;DHT22;42438;53.174;6.730;2024-03-07T06:06:13;1.20;50.30
56542;DHT22;42438;53.174;6.730;2024-03-07T06:08:44;1.20;63.40
56542;DHT22;42438;53.174;6.730;2024-03-07T06:11:15;1.30;74.30
56542;DHT22;42438;53.174;6.730;2024-03-07T06:13:50;1.50;86.70
56542;DHT22;42438;53.174;6.730;2024-03-07T06:16:21;1.40;99.90
56542;DHT22;42438;53.174;6.730;2024-03-07T06:18:52;1.20;99.90
56542;DHT22;42438;53.174;6.730;2024-03-07T06:21:22;1.50;99.90
56542;DHT22;42438;53.174;6.730;2024-03-07T06:23:54;1.20;99.90
56542;DHT22;42438;53.174;6.730;2024-03-07T06:26:31;1.20;99.90
56542;DHT22;42438;53.174;6.730;2024-03-07T06:29:17;1.50;99.90
56542;DHT22;42438;53.174;6.730;2024-03-07T06:31:48;1.70;99.90
56542;DHT22;42438;53.174;6.730;2024-03-07T06:34:20;1.20;99.90
56542;DHT22;42438;53.174;6.730;2024-03-07T06:36:51;1.60;99.90
56542;DHT22;42438;53.174;6.730;2024-03-07T06:39:22;1.50;99.90
56542;DHT22;42438;53.174;6.730;2024-03-07T06:41:52;3.00;99.90
56542;DHT22;42438;53.174;6.730;2024-03-07T06:44:23;1.30;99.90
56542;DHT22;42438;53.174;6.730;2024-03-07T06:46:53;1.30;99.90
56542;DHT22;42438;53.174;6.730;2024-03-07T06:49:24;1.40;99.90
56542;DHT22;42438;53.174;6.730;2024-03-07T06:51:55;1.40;99.90
56542;DHT22;42438;53.174;6.730;2024-03-07T06:54:26;1.50;99.90
56542;DHT22;42438;53.174;6.730;2024-03-07T06:56:57;1.60;99.90
56542;DHT22;42438;53.174;6.730;2024-03-07T06:59:28;1.70;99.90
56542;DHT22;42438;53.174;6.730;2024-03-07T07:01:58;1.50;99.90
56542;DHT22;42438;53.174;6.730;2024-03-07T07:04:29;1.70;99.90
56542;DHT22;42438;53.174;6.730;2024-03-07T07:07:12;2.00;99.90
56542;DHT22;42438;53.174;6.730;2024-03-07T07:09:43;2.00;99.90
56542;DHT22;42438;53.174;6.730;2024-03-07T07:12:14;2.10;99.90
56542;DHT22;42438;53.174;6.730;2024-03-07T07:14:45;2.30;99.90
56542;DHT22;42438;53.174;6.730;2024-03-07T07:17:15;2.20;99.90
56542;DHT22;42438;53.174;6.730;2024-03-07T07:19:46;1.80;99.90
56542;DHT22;42438;53.174;6.730;2024-03-07T07:22:17;2.10;99.90
56542;DHT22;42438;53.174;6.730;2024-03-07T07:24:48;1.80;99.90
56542;DHT22;42438;53.174;6.730;2024-03-07T07:27:19;1.90;99.90
56542;DHT22;42438;53.174;6.730;2024-03-07T07:29:50;1.80;99.90
56542;DHT22;42438;53.174;6.730;2024-03-07T07:32:21;1.70;99.90
56542;DHT22;42438;53.174;6.730;2024-03-07T07:34:51;2.10;99.90
56542;DHT22;42438;53.174;6.730;2024-03-07T07:37:22;2.00;99.90
56542;DHT22;42438;53.174;6.730;2024-03-07T07:39:53;1.80;99.90
56542;DHT22;42438;53.174;6.730;2024-03-07T07:42:24;1.90;99.90
56542;DHT22;42438;53.174;6.730;2024-03-07T07:44:54;2.20;99.90
56542;DHT22;42438;53.174;6.730;2024-03-07T07:47:25;2.00;99.90
56542;DHT22;42438;53.174;6.730;2024-03-07T07:49:55;2.20;99.90
56542;DHT22;42438;53.174;6.730;2024-03-07T07:52:26;2.20;99.90
56542;DHT22;42438;53.174;6.730;2024-03-07T07:54:57;2.20;99.90
56542;DHT22;42438;53.174;6.730;2024-03-07T07:57:27;2.00;99.90
56542;DHT22;42438;53.174;6.730;2024-03-07T07:59:59;2.10;99.90
56542;DHT22;42438;53.174;6.730;2024-03-07T08:02:30;3.30;99.90
56542;DHT22;42438;53.174;6.730;2024-03-07T08:05:00;2.10;99.90
56542;DHT22;42438;53.174;6.730;2024-03-07T08:07:31;2.20;99.90
56542;DHT22;42438;53.174;6.730;2024-03-07T08:10:02;2.30;99.90
56542;DHT22;42438;53.174;6.730;2024-03-07T08:12:33;2.10;99.90
56542;DHT22;42438;53.174;6.730;2024-03-07T08:15:04;2.30;99.90
56542;DHT22;42438;53.174;6.730;2024-03-07T08:17:35;2.20;99.90
56542;DHT22;42438;53.174;6.730;2024-03-07T08:20:06;2.20;99.90
56542;DHT22;42438;53.174;6.730;2024-03-07T08:22:42;2.30;99.90
56542;DHT22;42438;53.174;6.730;2024-03-07T08:25:14;2.50;99.90
56542;DHT22;42438;53.174;6.730;2024-03-07T08:27:47;2.40;99.90
56542;DHT22;42438;53.174;6.730;2024-03-07T08:30:18;2.60;99.90
56542;DHT22;42438;53.174;6.730;2024-03-07T08:32:50;2.70;99.90
56542;DHT22;42438;53.174;6.730;2024-03-07T08:35:24;2.70;99.90
56542;DHT22;42438;53.174;6.730;2024-03-07T08:37:55;2.70;99.90
56542;DHT22;42438;53.174;6.730;2024-03-07T08:40:29;2.60;99.90
56542;DHT22;42438;53.174;6.730;2024-03-07T08:43:02;3.30;99.90
56542;DHT22;42438;53.174;6.730;2024-03-07T08:45:33;2.60;99.90
56542;DHT22;42438;53.174;6.730;2024-03-07T08:48:04;3.80;99.90
56542;DHT22;42438;53.174;6.730;2024-03-07T08:50:35;2.90;99.90
56542;DHT22;42438;53.174;6.730;2024-03-07T08:53:07;2.90;99.90
56542;DHT22;42438;53.174;6.730;2024-03-07T08:55:39;2.80;99.90
56542;DHT22;42438;53.174;6.730;2024-03-07T08:58:10;4.00;99.90
56542;DHT22;42438;53.174;6.730;2024-03-07T09:00:40;2.90;99.90
56542;DHT22;42438;53.174;6.730;2024-03-07T09:03:11;4.00;99.90
56542;DHT22;42438;53.174;6.730;2024-03-07T09:05:42;3.00;99.90
56542;DHT22;42438;53.174;6.730;2024-03-07T09:08:13;3.10;99.90
56542;DHT22;42438;53.174;6.730;2024-03-07T09:10:44;2.80;99.90
56542;DHT22;42438;53.174;6.730;2024-03-07T09:13:14;3.00;99.90
56542;DHT22;42438;53.174;6.730;2024-03-07T09:15:45;3.20;99.90
56542;DHT22;42438;53.174;6.730;2024-03-07T09:18:16;3.00;99.90
56542;DHT22;42438;53.174;6.730;2024-03-07T09:20:46;3.20;99.90
56542;DHT22;42438;53.174;6.730;2024-03-07T09:23:18;3.10;99.90
56542;DHT22;42438;53.174;6.730;2024-03-07T09:25:49;4.40;99.90
56542;DHT22;42438;53.174;6.730;2024-03-07T09:28:20;3.30;99.90
56542;DHT22;42438;53.174;6.730;2024-03-07T09:30:51;3.40;99.90
56542;DHT22;42438;53.174;6.730;2024-03-07T09:33:21;3.30;99.90
56542;DHT22;42438;53.174;6.730;2024-03-07T09:35:52;3.20;99.90
56542;DHT22;42438;53.174;6.730;2024-03-07T09:38:23;3.50;99.90
56542;DHT22;42438;53.174;6.730;2024-03-07T09:40:54;3.30;99.90
56542;DHT22;42438;53.174;6.730;2024-03-07T09:43:26;3.70;99.90
56542;DHT22;42438;53.174;6.730;2024-03-07T09:45:59;4.70;99.90
56542;DHT22;42438;53.174;6.730;2024-03-07T09:48:30;3.20;99.90
56542;DHT22;42438;53.174;6.730;2024-03-07T09:51:02;3.50;99.90
56542;DHT22;42438;53.174;6.730;2024-03-07T09:53:37;3.30;99.90
56542;DHT22;42438;53.174;6.730;2024-03-07T09:56:08;3.40;99.90
56542;DHT22;42438;53.174;6.730;2024-03-07T09:58:41;3.60;99.90
56542;DHT22;42438;53.174;6.730;2024-03-07T10:01:12;3.40;99.90
56542;DHT22;42438;53.174;6.730;2024-03-07T10:03:45;3.60;99.90
56542;DHT22;42438;53.174;6.730;2024-03-07T10:06:17;3.60;99.90
56542;DHT22;42438;53.174;6.730;2024-03-07T10:08:47;3.60;99.90
56542;DHT22;42438;53.174;6.730;2024-03-07T10:11:18;4.30;99.90
56542;DHT22;42438;53.174;6.730;2024-03-07T10:13:53;3.80;99.90
56542;DHT22;42438;53.174;6.730;2024-03-07T10:16:25;3.60;99.90
56542;DHT22;42438;53.174;6.730;2024-03-07T10:18:56;5.00;99.90
56542;DHT22;42438;53.174;6.730;2024-03-07T10:21:26;3.80;99.90
56542;DHT22;42438;53.174;6.730;2024-03-07T10:24:07;4.70;99.90
56542;DHT22;42438;53.174;6.730;2024-03-07T10:26:38;3.90;99.90
56542;DHT22;42438;53.174;6.730;2024-03-07T10:29:09;5.00;99.90
56542;DHT22;42438;53.174;6.730;2024-03-07T10:31:39;4.90;99.90
56542;DHT22;42438;53.174;6.730;2024-03-07T10:34:11;4.00;99.90
56542;DHT22;42438;53.174;6.730;2024-03-07T10:36:43;4.10;99.90
56542;DHT22;42438;53.174;6.730;2024-03-07T10:39:13;4.10;99.90
56542;DHT22;42438;53.174;6.730;2024-03-07T10:41:52;4.00;99.90
56542;DHT22;42438;53.174;6.730;2024-03-07T10:44:29;4.20;99.90
56542;DHT22;42438;53.174;6.730;2024-03-07T10:47:00;4.30;99.90
56542;DHT22;42438;53.174;6.730;2024-03-07T10:49:36;4.50;99.90
56542;DHT22;42438;53.174;6.730;2024-03-07T10:52:13;4.80;99.90
56542;DHT22;42438;53.174;6.730;2024-03-07T10:55:15;4.50;99.90
56542;DHT22;42438;53.174;6.730;2024-03-07T10:57:52;5.20;99.90
56542;DHT22;42438;53.174;6.730;2024-03-07T11:00:26;5.50;98.90
56542;DHT22;42438;53.174;6.730;2024-03-07T11:03:11;5.00;65.70
56542;DHT22;42438;53.174;6.730;2024-03-07T11:05:42;5.00;1.00
56542;DHT22;42438;53.174;6.730;2024-03-07T11:08:14;5.20;1.00
56542;DHT22;42438;53.174;6.730;2024-03-07T11:10:45;5.30;1.00
56542;DHT22;42438;53.174;6.730;2024-03-07T11:13:17;5.10;64.00
56542;DHT22;42438;53.174;6.730;2024-03-07T11:15:49;5.20;1.00
56542;DHT22;42438;53.174;6.730;2024-03-07T11:18:21;5.30;99.90
56542;DHT22;42438;53.174;6.730;2024-03-07T11:20:52;5.90;99.90
56542;DHT22;42438;53.174;6.730;2024-03-07T11:23:32;5.70;1.00
56542;DHT22;42438;53.174;6.730;2024-03-07T11:26:10;5.40;99.90
56542;DHT22;42438;53.174;6.730;2024-03-07T11:28:42;5.80;1.00
56542;DHT22;42438;53.174;6.730;2024-03-07T11:31:26;5.70;1.00
56542;DHT22;42438;53.174;6.730;2024-03-07T11:34:13;6.10;1.00
56542;DHT22;42438;53.174;6.730;2024-03-07T11:36:50;6.20;99.90
56542;DHT22;42438;53.174;6.730;2024-03-07T11:39:41;6.30;99.90
56542;DHT22;42438;53.174;6.730;2024-03-07T11:44:50;6.20;1.00
56542;DHT22;42438;53.174;6.730;2024-03-07T11:47:22;7.30;99.90
56542;DHT22;42438;53.174;6.730;2024-03-07T11:49:55;6.50;99.90
56542;DHT22;42438;53.174;6.730;2024-03-07T11:52:28;6.50;1.00
56542;DHT22;42438;53.174;6.730;2024-03-07T11:54:59;6.60;1.00
56542;DHT22;42438;53.174;6.730;2024-03-07T11:57:34;6.80;1.00
56542;DHT22;42438;53.174;6.730;2024-03-07T12:00:05;6.90;99.90
56542;DHT22;42438;53.174;6.730;2024-03-07T12:02:42;7.10;99.90
56542;DHT22;42438;53.174;6.730;2024-03-07T12:05:14;7.40;99.90
56542;DHT22;42438;53.174;6.730;2024-03-07T12:07:46;7.60;99.90
56542;DHT22;42438;53.174;6.730;2024-03-07T12:10:17;7.80;1.00
56542;DHT22;42438;53.174;6.730;2024-03-07T12:12:55;7.70;1.00
56542;DHT22;42438;53.174;6.730;2024-03-07T12:15:27;7.90;99.90
56542;DHT22;42438;53.174;6.730;2024-03-07T12:17:58;7.70;99.90
56542;DHT22;42438;53.174;6.730;2024-03-07T12:20:32;7.80;99.90
56542;DHT22;42438;53.174;6.730;2024-03-07T12:23:05;7.70;88.50
56542;DHT22;42438;53.174;6.730;2024-03-07T12:25:38;7.60;1.00
56542;DHT22;42438;53.174;6.730;2024-03-07T12:28:13;7.70;1.00
56542;DHT22;42438;53.174;6.730;2024-03-07T12:30:52;7.80;1.00
56542;DHT22;42438;53.174;6.730;2024-03-07T12:33:24;7.40;1.00
56542;DHT22;42438;53.174;6.730;2024-03-07T12:36:02;7.60;1.00
56542;DHT22;42438;53.174;6.730;2024-03-07T12:38:40;7.40;99.90
56542;DHT22;42438;53.174;6.730;2024-03-07T12:41:11;7.50;99.90
56542;DHT22;42438;53.174;6.730;2024-03-07T12:43:45;7.30;99.90
56542;DHT22;42438;53.174;6.730;2024-03-07T12:46:18;7.50;99.90
56542;DHT22;42438;53.174;6.730;2024-03-07T12:48:49;7.20;99.90
56542;DHT22;42438;53.174;6.730;2024-03-07T12:51:20;7.30;99.90
56542;DHT22;42438;53.174;6.730;2024-03-07T12:53:53;7.10;99.90
56542;DHT22;42438;53.174;6.730;2024-03-07T12:56:23;7.20;99.90
56542;DHT22;42438;53.174;6.730;2024-03-07T12:58:54;7.00;99.90
56542;DHT22;42438;53.174;6.730;2024-03-07T13:01:27;7.00;99.90
56542;DHT22;42438;53.174;6.730;2024-03-07T13:03:58;7.10;99.90
56542;DHT22;42438;53.174;6.730;2024-03-07T13:06:29;7.00;99.90
56542;DHT22;42438;53.174;6.730;2024-03-07T13:09:00;7.10;99.90
56542;DHT22;42438;53.174;6.730;2024-03-07T13:11:31;7.00;99.90
56542;DHT22;42438;53.174;6.730;2024-03-07T13:14:02;7.20;99.90
56542;DHT22;42438;53.174;6.730;2024-03-07T13:16:34;7.00;99.90
56542;DHT22;42438;53.174;6.730;2024-03-07T13:19:04;7.00;99.90
56542;DHT22;42438;53.174;6.730;2024-03-07T13:21:35;7.20;99.90
56542;DHT22;42438;53.174;6.730;2024-03-07T13:24:06;7.10;99.90
56542;DHT22;42438;53.174;6.730;2024-03-07T13:26:38;7.20;99.90
56542;DHT22;42438;53.174;6.730;2024-03-07T13:29:09;7.20;99.90
56542;DHT22;42438;53.174;6.730;2024-03-07T13:31:41;7.10;99.90
56542;DHT22;42438;53.174;6.730;2024-03-07T13:34:13;7.40;99.90
56542;DHT22;42438;53.174;6.730;2024-03-07T13:36:44;7.30;99.90
56542;DHT22;42438;53.174;6.730;2024-03-07T13:39:15;7.40;99.90
56542;DHT22;42438;53.174;6.730;2024-03-07T13:41:46;7.40;99.90
56542;DHT22;42438;53.174;6.730;2024-03-07T13:44:18;7.30;99.90
56542;DHT22;42438;53.174;6.730;2024-03-07T13:46:50;7.30;99.90
56542;DHT22;42438;53.174;6.730;2024-03-07T13:49:20;7.30;99.90
56542;DHT22;42438;53.174;6.730;2024-03-07T13:51:54;7.40;99.90
56542;DHT22;42438;53.174;6.730;2024-03-07T13:54:30;7.40;99.90
56542;DHT22;42438;53.174;6.730;2024-03-07T14:00:16;7.90;99.90
56542;DHT22;42438;53.174;6.730;2024-03-07T14:06:05;7.80;85.10
56542;DHT22;42438;53.174;6.730;2024-03-07T14:12:12;7.80;1.00
56542;DHT22;42438;53.174;6.730;2024-03-07T14:18:07;7.70;1.00
56542;DHT22;42438;53.174;6.730;2024-03-07T14:29:48;7.80;1.00
56542;DHT22;42438;53.174;6.730;2024-03-07T14:32:22;8.10;1.00
56542;DHT22;42438;53.174;6.730;2024-03-07T14:35:03;7.90;1.00
56542;DHT22;42438;53.174;6.730;2024-03-07T14:37:45;8.20;1.00
56542;DHT22;42438;53.174;6.730;2024-03-07T14:40:17;8.10;1.00
56542;DHT22;42438;53.174;6.730;2024-03-07T14:42:48;8.20;1.00
56542;DHT22;42438;53.174;6.730;2024-03-07T14:45:21;8.10;1.00
56542;DHT22;42438;53.174;6.730;2024-03-07T14:47:53;8.00;1.00
56542;DHT22;42438;53.174;6.730;2024-03-07T14:50:27;8.20;99.90
56542;DHT22;42438;53.174;6.730;2024-03-07T14:52:59;8.10;99.90
56542;DHT22;42438;53.174;6.730;2024-03-07T14:55:31;8.20;99.90
56542;DHT22;42438;53.174;6.730;2024-03-07T14:58:02;8.00;99.90
56542;DHT22;42438;53.174;6.730;2024-03-07T15:00:33;8.30;99.90
56542;DHT22;42438;53.174;6.730;2024-03-07T15:03:04;8.20;99.90
56542;DHT22;42438;53.174;6.730;2024-03-07T15:05:36;8.20;99.90
56542;DHT22;42438;53.174;6.730;2024-03-07T15:08:07;8.00;99.90
56542;DHT22;42438;53.174;6.730;2024-03-07T15:10:45;8.00;99.90
56542;DHT22;42438;53.174;6.730;2024-03-07T15:13:16;8.00;99.90
56542;DHT22;42438;53.174;6.730;2024-03-07T15:15:47;7.90;99.90
56542;DHT22;42438;53.174;6.730;2024-03-07T15:18:18;8.70;99.90
56542;DHT22;42438;53.174;6.730;2024-03-07T15:20:48;8.20;99.90
56542;DHT22;42438;53.174;6.730;2024-03-07T15:23:19;7.80;99.90
56542;DHT22;42438;53.174;6.730;2024-03-07T15:25:50;7.90;99.90
56542;DHT22;42438;53.174;6.730;2024-03-07T15:28:21;7.60;99.90
56542;DHT22;42438;53.174;6.730;2024-03-07T15:30:52;7.70;99.90
56542;DHT22;42438;53.174;6.730;2024-03-07T15:33:23;7.50;99.90
56542;DHT22;42438;53.174;6.730;2024-03-07T15:35:53;7.70;99.90
56542;DHT22;42438;53.174;6.730;2024-03-07T15:38:24;7.60;99.90
56542;DHT22;42438;53.174;6.730;2024-03-07T15:41:00;7.60;99.90
56542;DHT22;42438;53.174;6.730;2024-03-07T15:43:32;7.50;99.90
56542;DHT22;42438;53.174;6.730;2024-03-07T15:46:03;7.60;99.90
56542;DHT22;42438;53.174;6.730;2024-03-07T15:48:36;7.40;99.90
56542;DHT22;42438;53.174;6.730;2024-03-07T15:51:07;7.40;99.90
56542;DHT22;42438;53.174;6.730;2024-03-07T15:53:41;7.40;99.90
56542;DHT22;42438;53.174;6.730;2024-03-07T15:56:12;7.60;99.90
56542;DHT22;42438;53.174;6.730;2024-03-07T15:58:43;7.50;99.90
56542;DHT22;42438;53.174;6.730;2024-03-07T16:01:15;7.30;99.90
56542;DHT22;42438;53.174;6.730;2024-03-07T16:03:47;7.50;99.90
56542;DHT22;42438;53.174;6.730;2024-03-07T16:06:17;7.90;99.90
56542;DHT22;42438;53.174;6.730;2024-03-07T16:08:49;7.10;99.90
56542;DHT22;42438;53.174;6.730;2024-03-07T16:11:19;7.10;99.90
56542;DHT22;42438;53.174;6.730;2024-03-07T16:13:54;7.00;99.90
56542;DHT22;42438;53.174;6.730;2024-03-07T16:16:25;7.10;99.90
56542;DHT22;42438;53.174;6.730;2024-03-07T16:18:56;7.00;99.90
56542;DHT22;42438;53.174;6.730;2024-03-07T16:21:27;7.00;99.90
56542;DHT22;42438;53.174;6.730;2024-03-07T16:23:58;7.10;99.90
56542;DHT22;42438;53.174;6.730;2024-03-07T16:26:35;7.00;99.90
56542;DHT22;42438;53.174;6.730;2024-03-07T16:29:06;7.10;99.90
56542;DHT22;42438;53.174;6.730;2024-03-07T16:31:37;7.00;99.90
56542;DHT22;42438;53.174;6.730;2024-03-07T16:34:09;7.00;99.90
56542;DHT22;42438;53.174;6.730;2024-03-07T16:36:40;6.80;99.90
56542;DHT22;42438;53.174;6.730;2024-03-07T16:39:10;6.80;99.90
56542;DHT22;42438;53.174;6.730;2024-03-07T16:41:42;6.80;99.90
56542;DHT22;42438;53.174;6.730;2024-03-07T16:44:13;6.70;99.90